Chalgrove, United Kingdom
Current Conditions -  °F | °C
As of 7:50 PM on Friday 19 Dec 2014 (Local Time) from EGUB Reporting Station
Clear Clear  
Wind Chill: 37°   Ceiling: Unl
Heat Index: 43°   Visibility: 6mi
Dew Point: 36°   Wind: 12mph
Humidity: 76%   Direction: 240°WSW
Pressure: 30.15"   Gusts: NA
Location:  51.66°N, 1.08°W
Report Text: EGUB 191950Z AUTO 24010KT 9999 // NCD 06/02 Q1021
Loading
Personal Weather Stations






























Interactive Weather Map New forecast layout! Learn more

10-Day Weather Forecast

Advertisements
Track Severe Weather on mobile